createdAt,value
2023-05-21T00:01:07.549Z,11.68
2023-05-21T00:03:14.178Z,11.66
2023-05-21T00:05:18.456Z,11.64
2023-05-21T00:07:21.870Z,11.62
2023-05-21T00:09:25.471Z,11.59
2023-05-21T00:11:28.696Z,11.56
2023-05-21T00:13:32.015Z,11.52
2023-05-21T00:15:35.356Z,11.49
2023-05-21T00:17:40.279Z,11.45
2023-05-21T00:19:43.719Z,11.41
2023-05-21T00:21:46.987Z,11.38
2023-05-21T00:23:50.387Z,11.33
2023-05-21T00:25:53.857Z,11.30
2023-05-21T00:27:57.170Z,11.27
2023-05-21T00:30:00.393Z,11.25
2023-05-21T00:32:03.682Z,11.21
2023-05-21T00:34:08.413Z,11.19
2023-05-21T00:36:14.405Z,11.18
2023-05-21T00:38:19.083Z,11.17
2023-05-21T00:40:22.590Z,11.17
2023-05-21T00:42:27.369Z,11.16
2023-05-21T00:44:34.186Z,11.17
2023-05-21T00:46:38.146Z,11.18
2023-05-21T00:48:41.559Z,11.18
2023-05-21T00:50:46.542Z,11.17
2023-05-21T00:52:50.292Z,11.18
2023-05-21T00:54:54.076Z,11.17
2023-05-21T00:56:58.111Z,11.18
2023-05-21T00:59:05.554Z,11.17
2023-05-21T01:01:14.146Z,11.16
2023-05-21T01:03:18.144Z,11.17
2023-05-21T01:05:22.346Z,11.16
2023-05-21T01:07:27.050Z,11.16
2023-05-21T01:09:30.462Z,11.16
2023-05-21T01:11:39.814Z,11.16
2023-05-21T01:13:44.192Z,11.16
2023-05-21T01:15:48.768Z,11.16
2023-05-21T01:17:53.268Z,11.15
2023-05-21T01:19:58.874Z,11.14
2023-05-21T01:22:04.950Z,11.13
2023-05-21T01:24:09.748Z,11.12
2023-05-21T01:26:13.306Z,11.11
2023-05-21T01:28:16.542Z,11.11
2023-05-21T01:30:21.290Z,11.10
2023-05-21T01:32:31.083Z,11.12
2023-05-21T01:34:40.620Z,11.13
2023-05-21T01:36:50.620Z,11.14
2023-05-21T01:38:58.917Z,11.12
2023-05-21T01:41:04.865Z,11.11
2023-05-21T01:43:09.485Z,11.09
2023-05-21T01:45:15.791Z,11.07
2023-05-21T01:47:19.976Z,11.05
2023-05-21T01:49:24.063Z,11.02
2023-05-21T01:51:28.286Z,11.00
2023-05-21T01:53:31.738Z,10.99
2023-05-21T01:55:39.539Z,10.98
2023-05-21T01:57:44.704Z,10.94
2023-05-21T01:59:48.153Z,10.92
2023-05-21T02:01:51.462Z,10.87
2023-05-21T02:03:54.897Z,10.86
2023-05-21T02:05:58.340Z,10.85
2023-05-21T02:08:02.475Z,10.83
2023-05-21T02:10:06.716Z,10.80
2023-05-21T02:12:09.948Z,10.79
2023-05-21T02:14:15.156Z,10.79
2023-05-21T02:16:19.761Z,10.79
2023-05-21T02:18:23.355Z,10.79
2023-05-21T02:20:26.637Z,10.79
2023-05-21T02:22:30.222Z,10.80
2023-05-21T02:24:33.454Z,10.81
2023-05-21T02:26:37.411Z,10.81
2023-05-21T02:28:40.754Z,10.81
2023-05-21T02:30:45.412Z,10.82
2023-05-21T02:32:50.820Z,10.80
2023-05-21T02:34:54.269Z,10.79
2023-05-21T02:36:58.863Z,10.79
2023-05-21T02:39:02.074Z,10.77
2023-05-21T02:41:05.675Z,10.76
2023-05-21T02:43:08.911Z,10.74
2023-05-21T02:45:12.912Z,10.74
2023-05-21T02:47:20.912Z,10.73
2023-05-21T02:49:24.125Z,10.71
2023-05-21T02:51:27.482Z,10.68
2023-05-21T02:53:31.171Z,10.67
2023-05-21T02:55:34.645Z,10.65
2023-05-21T02:57:38.375Z,10.66
2023-05-21T02:59:41.613Z,10.65
2023-05-21T03:01:45.282Z,10.63
2023-05-21T03:03:50.180Z,10.63
2023-05-21T03:05:53.443Z,10.63
2023-05-21T03:07:56.748Z,10.62
2023-05-21T03:10:00.094Z,10.61
2023-05-21T03:12:03.489Z,10.60
2023-05-21T03:14:07.501Z,10.60
2023-05-21T03:16:11.061Z,10.60
2023-05-21T03:18:14.489Z,10.62
2023-05-21T03:20:19.134Z,10.63
2023-05-21T03:22:22.370Z,10.63
2023-05-21T03:24:26.349Z,10.65
2023-05-21T03:26:29.786Z,10.66
2023-05-21T03:28:34.725Z,10.67
2023-05-21T03:30:38.414Z,10.68
2023-05-21T03:33:09.642Z,10.68
2023-05-21T03:35:13.077Z,10.68
2023-05-21T03:37:17.786Z,10.69
2023-05-21T03:39:21.068Z,10.68
2023-05-21T03:41:25.069Z,10.67
2023-05-21T03:43:33.385Z,10.68
2023-05-21T03:45:36.784Z,10.68
2023-05-21T03:48:19.186Z,10.69
2023-05-21T03:50:23.002Z,10.71
2023-05-21T03:52:27.942Z,10.73
2023-05-21T03:54:31.756Z,10.75
2023-05-21T03:56:39.505Z,10.77
2023-05-21T03:58:42.788Z,10.77
2023-05-21T04:00:46.168Z,10.78
2023-05-21T04:02:49.519Z,10.78
2023-05-21T04:04:56.022Z,10.79
2023-05-21T04:06:59.680Z,10.80
2023-05-21T04:09:04.858Z,10.83
2023-05-21T04:11:08.233Z,10.86
2023-05-21T04:13:12.260Z,10.89
2023-05-21T04:15:18.831Z,10.93
2023-05-21T04:17:22.411Z,10.96
2023-05-21T04:19:26.769Z,11.02
2023-05-21T04:21:32.051Z,11.06
2023-05-21T04:23:37.505Z,11.10
2023-05-21T04:25:51.054Z,11.16
2023-05-21T04:27:54.820Z,11.22
2023-05-21T04:29:59.167Z,11.29
2023-05-21T04:32:02.380Z,11.34
2023-05-21T04:34:06.422Z,11.40
2023-05-21T04:36:11.526Z,11.44
2023-05-21T04:38:19.669Z,11.46
2023-05-21T04:40:24.398Z,11.49
2023-05-21T04:42:30.071Z,11.51
2023-05-21T04:44:33.792Z,11.54
2023-05-21T04:46:39.672Z,11.58
2023-05-21T04:48:45.159Z,11.63
2023-05-21T04:50:49.063Z,11.69
2023-05-21T04:52:54.804Z,11.74
2023-05-21T04:54:58.019Z,11.78
2023-05-21T04:57:01.275Z,11.84
2023-05-21T04:59:06.541Z,11.89
2023-05-21T05:01:10.861Z,11.96
2023-05-21T05:03:14.720Z,12.01
2023-05-21T05:05:19.924Z,12.06
2023-05-21T05:07:23.922Z,12.13
2023-05-21T05:09:27.333Z,12.19
2023-05-21T05:11:30.522Z,12.25
2023-05-21T05:13:35.414Z,12.32
2023-05-21T05:15:40.443Z,12.36
2023-05-21T05:17:45.028Z,12.43
2023-05-21T05:19:49.660Z,12.46
2023-05-21T05:21:52.897Z,12.50
2023-05-21T05:23:56.716Z,12.54
2023-05-21T05:26:03.693Z,12.57
2023-05-21T05:28:06.944Z,12.63
2023-05-21T05:30:11.096Z,12.68
2023-05-21T05:32:15.868Z,12.73
2023-05-21T05:34:20.009Z,12.77
2023-05-21T05:36:24.594Z,12.83
2023-05-21T05:38:28.983Z,12.88
2023-05-21T05:40:32.281Z,12.94
2023-05-21T05:42:35.868Z,13.00
2023-05-21T05:44:46.021Z,13.08
2023-05-21T05:46:49.317Z,13.17
2023-05-21T05:48:54.602Z,13.26
2023-05-21T05:50:57.834Z,13.33
2023-05-21T05:53:02.604Z,13.39
2023-05-21T05:55:09.046Z,13.42
2023-05-21T05:57:12.544Z,13.46
2023-05-21T05:59:16.497Z,13.50
2023-05-21T06:01:24.841Z,13.54
2023-05-21T06:03:29.572Z,13.57
2023-05-21T06:05:35.432Z,13.60
2023-05-21T06:07:39.562Z,13.65
2023-05-21T06:09:42.894Z,13.69
2023-05-21T06:11:46.180Z,13.73
2023-05-21T06:13:49.799Z,13.76
2023-05-21T06:15:54.377Z,13.82
2023-05-21T06:17:57.705Z,13.84
2023-05-21T06:20:01.000Z,13.89
2023-05-21T06:22:06.679Z,13.98
2023-05-21T06:24:09.954Z,14.05
2023-05-21T06:26:13.222Z,14.12
2023-05-21T06:28:17.775Z,14.23
2023-05-21T06:30:21.152Z,14.37
2023-05-21T06:32:26.236Z,14.50
2023-05-21T06:34:29.590Z,14.60
2023-05-21T06:36:32.941Z,14.70
2023-05-21T06:38:37.739Z,14.77
2023-05-21T06:40:40.964Z,14.87
2023-05-21T06:42:48.781Z,14.93
2023-05-21T06:44:58.332Z,14.99
2023-05-21T06:47:07.737Z,15.03
2023-05-21T06:49:14.417Z,15.08
2023-05-21T06:51:18.991Z,15.16
2023-05-21T06:53:22.237Z,15.22
2023-05-21T06:55:26.954Z,15.30
2023-05-21T06:57:48.650Z,15.41
2023-05-21T06:59:52.024Z,15.52
2023-05-21T07:01:55.338Z,15.64
2023-05-21T07:03:59.320Z,15.73
2023-05-21T07:06:02.564Z,15.81
2023-05-21T07:08:05.897Z,15.89
2023-05-21T07:10:10.376Z,15.99
2023-05-21T07:12:16.153Z,16.07
2023-05-21T07:14:19.621Z,16.16
2023-05-21T07:16:22.910Z,16.23
2023-05-21T07:18:26.589Z,16.28
2023-05-21T07:20:29.842Z,16.34
2023-05-21T07:22:38.200Z,16.42
2023-05-21T07:24:41.883Z,16.48
2023-05-21T07:26:45.247Z,16.51
2023-05-21T07:28:50.466Z,16.53
2023-05-21T07:30:53.787Z,16.56
2023-05-21T07:33:04.000Z,16.60
2023-05-21T07:35:08.092Z,16.62
2023-05-21T07:37:11.494Z,16.71
2023-05-21T07:39:15.442Z,16.78
2023-05-21T07:41:19.209Z,16.83
2023-05-21T07:43:24.237Z,16.87
2023-05-21T07:45:29.013Z,16.89
2023-05-21T07:47:32.750Z,16.96
2023-05-21T07:49:36.298Z,17.08
2023-05-21T07:51:39.663Z,17.21
2023-05-21T07:53:43.177Z,17.34
2023-05-21T07:55:49.037Z,17.47
2023-05-21T07:57:56.387Z,17.60
2023-05-21T08:00:06.917Z,17.76
2023-05-21T08:02:20.737Z,17.91
2023-05-21T08:04:24.593Z,18.02
2023-05-21T08:06:28.377Z,18.15
2023-05-21T08:08:31.643Z,18.29
2023-05-21T08:10:35.105Z,18.41
2023-05-21T08:12:38.387Z,18.47
2023-05-21T08:14:43.183Z,18.52
2023-05-21T08:16:48.223Z,18.58
2023-05-21T08:18:53.214Z,18.70
2023-05-21T08:20:56.782Z,18.78
2023-05-21T08:23:01.486Z,18.85
2023-05-21T08:25:10.952Z,18.90
2023-05-21T08:27:16.194Z,18.97
2023-05-21T08:29:19.595Z,19.05
2023-05-21T08:31:23.565Z,19.10
2023-05-21T08:33:27.847Z,19.16
2023-05-21T08:35:32.592Z,19.22
2023-05-21T08:37:50.863Z,19.22
2023-05-21T08:40:02.097Z,19.19
2023-05-21T08:42:32.888Z,19.20
2023-05-21T08:44:47.152Z,19.23
2023-05-21T08:46:51.955Z,19.30
2023-05-21T08:48:56.283Z,19.37
2023-05-21T08:51:02.777Z,19.45
2023-05-21T08:53:23.364Z,19.53
2023-05-21T08:55:32.613Z,19.62
2023-05-21T08:57:36.220Z,19.70
2023-05-21T08:59:44.185Z,19.79
2023-05-21T09:01:57.813Z,19.86
2023-05-21T09:04:19.693Z,19.85
2023-05-21T09:06:28.353Z,19.84
2023-05-21T09:08:36.512Z,19.81
2023-05-21T09:10:51.323Z,19.79
2023-05-21T09:12:57.093Z,19.78
2023-05-21T09:15:01.513Z,19.80
2023-05-21T09:17:09.251Z,19.84
2023-05-21T09:19:12.609Z,19.88
2023-05-21T09:21:27.941Z,19.90
2023-05-21T09:23:42.104Z,19.92
2023-05-21T09:25:47.491Z,19.94
2023-05-21T09:27:57.652Z,19.94
2023-05-21T09:30:01.300Z,19.92
2023-05-21T09:32:08.353Z,19.91
2023-05-21T09:34:15.270Z,19.92
2023-05-21T09:36:21.319Z,19.96
2023-05-21T09:38:27.012Z,20.04
2023-05-21T09:40:30.724Z,20.08
2023-05-21T09:42:34.447Z,20.13
2023-05-21T09:44:37.762Z,20.18
2023-05-21T09:46:42.092Z,20.24
2023-05-21T09:48:45.806Z,20.29
2023-05-21T09:50:51.691Z,20.32
2023-05-21T09:52:55.949Z,20.34
2023-05-21T09:55:01.550Z,20.37
2023-05-21T09:57:05.076Z,20.41
2023-05-21T09:59:08.851Z,20.49
2023-05-21T10:01:12.505Z,20.56
2023-05-21T10:03:17.914Z,20.65
2023-05-21T10:05:21.984Z,20.79
2023-05-21T10:07:27.260Z,20.91
2023-05-21T10:09:31.414Z,21.06
2023-05-21T10:11:37.128Z,21.21
2023-05-21T10:13:46.065Z,21.34
2023-05-21T10:15:56.875Z,21.43
2023-05-21T10:18:01.569Z,21.45
2023-05-21T10:20:07.321Z,21.49
2023-05-21T10:22:11.332Z,21.58
2023-05-21T10:24:15.404Z,21.71
2023-05-21T10:26:20.682Z,21.85
2023-05-21T10:28:25.905Z,21.97
2023-05-21T10:30:29.497Z,22.12
2023-05-21T10:32:33.362Z,22.24
2023-05-21T10:34:38.954Z,22.34
2023-05-21T10:36:42.929Z,22.43
2023-05-21T10:38:46.759Z,22.50
2023-05-21T10:40:50.623Z,22.61
2023-05-21T10:43:13.917Z,22.75
2023-05-21T10:45:28.164Z,22.83
2023-05-21T10:47:51.526Z,22.87
2023-05-21T10:50:20.926Z,22.84
2023-05-21T10:52:39.847Z,22.82
2023-05-21T10:55:11.238Z,22.84
2023-05-21T10:57:26.391Z,22.92
2023-05-21T10:59:41.289Z,22.97
2023-05-21T11:01:46.362Z,22.98
2023-05-21T11:03:50.046Z,22.98
2023-05-21T11:05:55.289Z,22.93
2023-05-21T11:07:58.898Z,22.89
2023-05-21T11:10:34.012Z,22.88
2023-05-21T11:12:57.909Z,22.98
2023-05-21T11:15:01.156Z,23.08
2023-05-21T11:17:12.413Z,23.15
2023-05-21T11:19:19.148Z,23.22
2023-05-21T11:21:26.270Z,23.27
2023-05-21T11:23:50.271Z,23.32
2023-05-21T11:26:02.251Z,23.42
2023-05-21T11:28:09.577Z,23.52
2023-05-21T11:30:17.575Z,23.62
2023-05-21T11:32:24.238Z,23.67
2023-05-21T11:34:29.360Z,23.68
2023-05-21T11:36:34.056Z,23.70
2023-05-21T11:38:39.210Z,23.75
2023-05-21T11:40:54.737Z,23.84
2023-05-21T11:42:58.473Z,23.92
2023-05-21T11:45:03.984Z,23.99
2023-05-21T11:47:10.175Z,24.06
2023-05-21T11:49:16.159Z,24.17
2023-05-21T11:51:19.531Z,24.26
2023-05-21T11:53:25.106Z,24.25
2023-05-21T11:55:29.628Z,24.19
2023-05-21T11:57:32.858Z,24.15
2023-05-21T11:59:36.486Z,24.16
2023-05-21T12:01:39.739Z,24.19
2023-05-21T12:03:43.388Z,24.26
2023-05-21T12:05:48.683Z,24.35
2023-05-21T12:07:52.164Z,24.41
2023-05-21T12:09:55.781Z,24.44
2023-05-21T12:11:59.227Z,24.48
2023-05-21T12:14:02.557Z,24.50
2023-05-21T12:16:07.177Z,24.53
2023-05-21T12:18:11.487Z,24.54
2023-05-21T12:20:16.669Z,24.57
2023-05-21T12:22:22.028Z,24.55
2023-05-21T12:24:25.455Z,24.56
2023-05-21T12:26:28.984Z,24.61
2023-05-21T12:28:32.620Z,24.70
2023-05-21T12:30:36.192Z,24.81
2023-05-21T12:32:44.221Z,24.88
2023-05-21T12:34:48.832Z,24.96
2023-05-21T12:36:52.174Z,25.01
2023-05-21T12:38:57.686Z,25.07
2023-05-21T12:41:05.195Z,25.18
2023-05-21T12:43:08.580Z,25.33
2023-05-21T12:45:12.809Z,25.47
2023-05-21T12:47:16.392Z,25.64
2023-05-21T12:49:32.521Z,25.82
2023-05-21T12:51:41.710Z,26.02
2023-05-21T12:53:45.053Z,26.18
2023-05-21T12:55:49.981Z,26.34
2023-05-21T12:58:02.820Z,26.49
2023-05-21T13:00:07.809Z,26.59
2023-05-21T13:02:15.699Z,26.65
2023-05-21T13:04:20.790Z,26.70
2023-05-21T13:06:26.470Z,26.77
2023-05-21T13:08:30.213Z,26.85
2023-05-21T13:10:33.805Z,26.93
2023-05-21T13:12:38.433Z,27.05
2023-05-21T13:14:41.828Z,27.12
2023-05-21T13:16:48.052Z,27.18
2023-05-21T13:18:51.378Z,27.22
2023-05-21T13:20:54.696Z,27.26
2023-05-21T13:22:58.154Z,27.27
2023-05-21T13:25:01.504Z,27.29
2023-05-21T13:27:05.036Z,27.30
2023-05-21T13:29:09.975Z,27.28
2023-05-21T13:31:15.765Z,27.32
2023-05-21T13:33:21.975Z,27.42
2023-05-21T13:35:25.216Z,27.56
2023-05-21T13:37:28.462Z,27.76
2023-05-21T13:39:31.690Z,27.99
2023-05-21T13:41:35.011Z,28.17
2023-05-21T13:43:38.288Z,28.21
2023-05-21T13:45:43.874Z,28.21
2023-05-21T13:47:48.308Z,28.20
2023-05-21T13:49:52.091Z,28.13
2023-05-21T13:51:55.356Z,28.01
2023-05-21T13:53:58.602Z,27.96
2023-05-21T13:56:02.229Z,27.92
2023-05-21T13:58:05.660Z,27.84
2023-05-21T14:00:12.705Z,27.74
2023-05-21T14:02:17.789Z,27.65
2023-05-21T14:04:21.724Z,27.56
2023-05-21T14:06:24.988Z,27.52
2023-05-21T14:08:29.512Z,27.44
2023-05-21T14:10:32.776Z,27.41
2023-05-21T14:12:35.944Z,27.39
2023-05-21T14:14:39.209Z,27.36
2023-05-21T14:16:42.707Z,27.36
2023-05-21T14:18:47.457Z,27.32
2023-05-21T14:20:50.755Z,27.31
2023-05-21T14:22:54.003Z,27.36
2023-05-21T14:24:57.221Z,27.40
2023-05-21T14:27:00.416Z,27.38
2023-05-21T14:29:03.883Z,27.41
2023-05-21T14:31:07.757Z,27.40
2023-05-21T14:33:11.433Z,27.36
2023-05-21T14:35:16.206Z,27.27
2023-05-21T14:37:19.414Z,27.17
2023-05-21T14:39:22.638Z,27.04
2023-05-21T14:41:26.579Z,26.89
2023-05-21T14:43:29.852Z,26.76
2023-05-21T14:45:35.484Z,26.66
2023-05-21T14:47:38.812Z,26.58
2023-05-21T14:49:42.096Z,26.48
2023-05-21T14:51:47.615Z,26.41
2023-05-21T14:53:50.930Z,26.34
2023-05-21T14:55:55.162Z,26.24
2023-05-21T14:57:58.478Z,26.16
2023-05-21T15:00:01.835Z,26.15
2023-05-21T15:02:07.319Z,26.17
2023-05-21T15:04:10.753Z,26.17
2023-05-21T15:06:14.240Z,26.13
2023-05-21T15:08:18.939Z,26.07
2023-05-21T15:10:22.140Z,25.96
2023-05-21T15:12:25.787Z,25.86
2023-05-21T15:14:29.273Z,25.75
2023-05-21T15:16:32.628Z,25.67
2023-05-21T15:18:35.847Z,25.59
2023-05-21T15:20:39.134Z,25.53
2023-05-21T15:22:42.418Z,25.45
2023-05-21T15:24:47.157Z,25.33
2023-05-21T15:26:50.567Z,25.21
2023-05-21T15:28:54.029Z,25.13
2023-05-21T15:30:57.279Z,25.09
2023-05-21T15:33:00.733Z,25.03
2023-05-21T15:35:04.068Z,24.98
2023-05-21T15:37:07.598Z,24.92
2023-05-21T15:39:10.884Z,24.84
2023-05-21T15:41:15.509Z,24.78
2023-05-21T15:43:18.865Z,24.68
2023-05-21T15:45:22.128Z,24.62
2023-05-21T15:47:25.328Z,24.60
2023-05-21T15:49:28.731Z,24.56
2023-05-21T15:51:32.072Z,24.53
2023-05-21T15:53:35.363Z,24.51
2023-05-21T15:55:38.975Z,24.50
2023-05-21T15:57:43.841Z,24.51
2023-05-21T15:59:47.461Z,24.51
2023-05-21T16:01:50.724Z,24.57
2023-05-21T16:03:53.979Z,24.64
2023-05-21T16:05:57.403Z,24.68
2023-05-21T16:08:00.747Z,24.71
2023-05-21T16:10:04.151Z,24.70
2023-05-21T16:12:08.040Z,24.72
2023-05-21T16:14:12.934Z,24.69
2023-05-21T16:16:16.319Z,24.65
2023-05-21T16:18:19.535Z,24.61
2023-05-21T16:20:22.888Z,24.57
2023-05-21T16:22:26.214Z,24.55
2023-05-21T16:24:29.516Z,24.55
2023-05-21T16:26:32.792Z,24.53
2023-05-21T16:28:37.569Z,24.50
2023-05-21T16:30:42.418Z,24.46
2023-05-21T16:32:45.684Z,24.42
2023-05-21T16:34:48.906Z,24.36
2023-05-21T16:36:52.191Z,24.32
2023-05-21T16:38:55.468Z,24.29
2023-05-21T16:40:58.783Z,24.27
2023-05-21T16:43:03.114Z,24.27
2023-05-21T16:45:07.495Z,24.24
2023-05-21T16:47:12.120Z,24.19
2023-05-21T16:49:15.502Z,24.13
2023-05-21T16:51:18.886Z,24.07
2023-05-21T16:53:22.418Z,23.97
2023-05-21T16:55:25.791Z,23.87
2023-05-21T16:57:29.067Z,23.79
2023-05-21T16:59:32.309Z,23.70
2023-05-21T17:01:35.788Z,23.60
2023-05-21T17:03:43.092Z,23.53
2023-05-21T17:05:46.651Z,23.49
2023-05-21T17:07:50.219Z,23.45
2023-05-21T17:09:53.875Z,23.39
2023-05-21T17:11:57.223Z,23.32
2023-05-21T17:14:00.468Z,23.26
2023-05-21T17:16:03.756Z,23.21
2023-05-21T17:18:07.152Z,23.16
2023-05-21T17:20:13.456Z,23.11
2023-05-21T17:22:16.786Z,23.04
2023-05-21T17:24:20.082Z,22.96
2023-05-21T17:26:23.389Z,22.89
2023-05-21T17:28:26.691Z,22.82
2023-05-21T17:30:30.284Z,22.75
2023-05-21T17:32:33.520Z,22.68
2023-05-21T17:34:37.210Z,22.62
2023-05-21T17:36:41.784Z,22.55
2023-05-21T17:38:45.125Z,22.50
2023-05-21T17:40:49.034Z,22.46
2023-05-21T17:42:52.445Z,22.44
2023-05-21T17:44:55.860Z,22.41
2023-05-21T17:46:59.171Z,22.37
2023-05-21T17:49:03.068Z,22.34
2023-05-21T17:51:06.336Z,22.32
2023-05-21T17:53:10.967Z,22.30
2023-05-21T17:55:14.467Z,22.26
2023-05-21T17:57:19.731Z,22.25
2023-05-21T17:59:23.005Z,22.23
2023-05-21T18:01:26.524Z,22.22
2023-05-21T18:03:29.831Z,22.20
2023-05-21T18:05:33.058Z,22.17
2023-05-21T18:07:36.326Z,22.13
2023-05-21T18:09:42.828Z,22.09
2023-05-21T18:11:46.107Z,22.06
2023-05-21T18:13:49.501Z,22.02
2023-05-21T18:15:52.853Z,21.95
2023-05-21T18:17:56.257Z,21.91
2023-05-21T18:19:59.517Z,21.87
2023-05-21T18:22:02.708Z,21.80
2023-05-21T18:24:07.424Z,21.76
2023-05-21T18:26:12.012Z,21.69
2023-05-21T18:28:15.263Z,21.63
2023-05-21T18:30:18.667Z,21.58
2023-05-21T18:32:22.075Z,21.52
2023-05-21T18:34:25.568Z,21.46
2023-05-21T18:36:29.272Z,21.40
2023-05-21T18:38:33.772Z,21.33
2023-05-21T18:40:37.410Z,21.28
2023-05-21T18:42:42.634Z,21.22
2023-05-21T18:44:46.544Z,21.17
2023-05-21T18:46:51.387Z,21.11
2023-05-21T18:48:54.672Z,21.06
2023-05-21T18:50:57.930Z,21.00
2023-05-21T18:53:01.158Z,20.94
2023-05-21T18:55:05.531Z,20.90
2023-05-21T18:57:08.734Z,20.86
2023-05-21T18:59:14.709Z,20.82
2023-05-21T19:01:18.369Z,20.77
2023-05-21T19:03:21.602Z,20.74
2023-05-21T19:05:24.902Z,20.69
2023-05-21T19:07:28.369Z,20.65
2023-05-21T19:09:31.611Z,20.61
2023-05-21T19:11:35.049Z,20.58
2023-05-21T19:13:38.304Z,20.55
2023-05-21T19:15:46.903Z,20.51
2023-05-21T19:17:50.211Z,20.46
2023-05-21T19:19:55.977Z,20.42
2023-05-21T19:21:59.660Z,20.38
2023-05-21T19:24:05.450Z,20.34
2023-05-21T19:26:09.193Z,20.28
2023-05-21T19:28:12.437Z,20.25
2023-05-21T19:30:15.775Z,20.21
2023-05-21T19:32:21.335Z,20.18
2023-05-21T19:34:24.734Z,20.14
2023-05-21T19:36:32.700Z,20.10
2023-05-21T19:38:48.142Z,20.07
2023-05-21T19:40:51.381Z,20.04
2023-05-21T19:42:54.695Z,20.01
2023-05-21T19:44:57.945Z,19.97
2023-05-21T19:47:01.812Z,19.93
2023-05-21T19:49:06.744Z,19.89
2023-05-21T19:51:10.014Z,19.85
2023-05-21T19:53:14.349Z,19.81
2023-05-21T19:55:20.377Z,19.78
2023-05-21T19:57:23.811Z,19.74
2023-05-21T19:59:27.345Z,19.72
2023-05-21T20:01:34.656Z,19.69
2023-05-21T20:03:38.376Z,19.66
2023-05-21T20:05:43.057Z,19.64
2023-05-21T20:07:53.788Z,19.61
2023-05-21T20:09:57.057Z,19.60
2023-05-21T20:12:00.613Z,19.58
2023-05-21T20:14:04.510Z,19.57
2023-05-21T20:16:07.765Z,19.54
2023-05-21T20:18:12.886Z,19.52
2023-05-21T20:20:16.863Z,19.51
2023-05-21T20:22:21.671Z,19.50
2023-05-21T20:24:24.972Z,19.49
2023-05-21T20:26:28.215Z,19.46
2023-05-21T20:28:31.516Z,19.45
2023-05-21T20:30:36.021Z,19.42
2023-05-21T20:32:39.675Z,19.40
2023-05-21T20:34:58.400Z,19.39
2023-05-21T20:37:06.074Z,19.33
2023-05-21T20:39:12.142Z,19.32
2023-05-21T20:41:15.372Z,19.29
2023-05-21T20:43:18.822Z,19.26
2023-05-21T20:45:22.339Z,19.22
2023-05-21T20:47:29.952Z,19.19
2023-05-21T20:49:34.284Z,19.16
2023-05-21T20:51:37.681Z,19.13
2023-05-21T20:53:41.519Z,19.09
2023-05-21T20:55:46.992Z,19.06
2023-05-21T20:57:50.853Z,19.03
2023-05-21T20:59:54.371Z,19.00
2023-05-21T21:01:57.700Z,18.97
2023-05-21T21:04:01.112Z,18.97
2023-05-21T21:06:06.519Z,18.93
2023-05-21T21:08:09.791Z,18.91
2023-05-21T21:10:13.149Z,18.88
2023-05-21T21:14:23.948Z,18.82
2023-05-21T21:16:27.194Z,18.79
2023-05-21T21:18:30.549Z,18.77
2023-05-21T21:20:33.758Z,18.73
2023-05-21T21:22:37.236Z,18.72
2023-05-21T21:24:40.576Z,18.69
2023-05-21T21:26:44.033Z,18.67
2023-05-21T21:28:48.688Z,18.63
2023-05-21T21:30:51.939Z,18.62
2023-05-21T21:32:55.225Z,18.60
2023-05-21T21:34:58.499Z,18.58
2023-05-21T21:37:01.883Z,18.56
2023-05-21T21:39:05.323Z,18.54
2023-05-21T21:41:08.718Z,18.51
2023-05-21T21:43:12.010Z,18.50
2023-05-21T21:45:16.828Z,18.46
2023-05-21T21:47:20.074Z,18.42
2023-05-21T21:49:23.375Z,18.38
2023-05-21T21:51:26.678Z,18.36
2023-05-21T21:53:29.976Z,18.34
2023-05-21T21:55:33.748Z,18.31
2023-05-21T21:57:37.082Z,18.29
2023-05-21T21:59:40.452Z,18.27
2023-05-21T22:01:45.311Z,18.25
2023-05-21T22:03:48.649Z,18.23
2023-05-21T22:05:51.868Z,18.20
2023-05-21T22:07:55.150Z,18.18
2023-05-21T22:09:58.375Z,18.16
2023-05-21T22:12:07.588Z,18.14
2023-05-21T22:14:11.682Z,18.12
2023-05-21T22:16:15.088Z,18.08
2023-05-21T22:18:31.933Z,18.06
2023-05-21T22:20:43.674Z,18.02
2023-05-21T22:22:47.259Z,17.98
2023-05-21T22:24:50.526Z,17.95
2023-05-21T22:26:53.900Z,17.92
2023-05-21T22:28:59.113Z,17.89
2023-05-21T22:31:02.529Z,17.85
2023-05-21T22:33:06.034Z,17.82
2023-05-21T22:35:12.605Z,17.80
2023-05-21T22:37:15.860Z,17.75
2023-05-21T22:39:19.358Z,17.72
2023-05-21T22:41:22.964Z,17.68
2023-05-21T22:43:26.696Z,17.65
2023-05-21T22:45:30.195Z,17.62
2023-05-21T22:47:33.483Z,17.58
2023-05-21T22:49:38.194Z,17.56
2023-05-21T22:51:44.997Z,17.54
2023-05-21T22:53:48.268Z,17.51
2023-05-21T22:55:51.608Z,17.47
2023-05-21T22:57:54.839Z,17.43
2023-05-21T22:59:58.096Z,17.39
2023-05-21T23:02:01.482Z,17.35
2023-05-21T23:04:04.760Z,17.32
2023-05-21T23:06:08.323Z,17.27
2023-05-21T23:08:12.954Z,17.24
2023-05-21T23:10:16.186Z,17.19
2023-05-21T23:12:19.429Z,17.16
2023-05-21T23:14:22.956Z,17.12
2023-05-21T23:16:26.603Z,17.09
2023-05-21T23:18:29.920Z,17.05
2023-05-21T23:20:33.794Z,17.04
2023-05-21T23:22:37.601Z,17.03
2023-05-21T23:24:42.334Z,16.99
2023-05-21T23:26:45.890Z,16.96
2023-05-21T23:28:49.246Z,16.94
2023-05-21T23:30:52.775Z,16.90
2023-05-21T23:32:56.250Z,16.87
2023-05-21T23:34:59.664Z,16.83
2023-05-21T23:37:03.052Z,16.80
2023-05-21T23:39:06.398Z,16.77
2023-05-21T23:41:11.175Z,16.73
2023-05-21T23:43:14.530Z,16.72
2023-05-21T23:45:18.351Z,16.68
2023-05-21T23:47:21.734Z,16.67
2023-05-21T23:49:25.128Z,16.64
2023-05-21T23:51:28.575Z,16.62
2023-05-21T23:53:31.957Z,16.61
2023-05-21T23:55:35.297Z,16.58
2023-05-21T23:57:40.087Z,16.56
2023-05-21T23:59:43.495Z,16.53
